createdAt,value
2018-09-03T00:00:04.082Z,16.68
2018-09-03T00:00:24.316Z,16.67
2018-09-03T00:00:44.176Z,16.67
2018-09-03T00:01:04.869Z,16.67
2018-09-03T00:01:24.801Z,16.67
2018-09-03T00:01:45.155Z,16.67
2018-09-03T00:02:05.835Z,16.64
2018-09-03T00:02:25.696Z,16.64
2018-09-03T00:02:46.059Z,16.66
2018-09-03T00:03:06.802Z,16.66
2018-09-03T00:03:26.656Z,16.66
2018-09-03T00:03:47.034Z,16.66
2018-09-03T00:04:07.557Z,16.66
2018-09-03T00:04:27.416Z,16.69
2018-09-03T00:04:47.761Z,16.69
2018-09-03T00:05:08.332Z,16.70
2018-09-03T00:05:28.182Z,16.69
2018-09-03T00:05:48.890Z,16.70
2018-09-03T00:06:08.751Z,16.71
2018-09-03T00:06:29.114Z,16.70
2018-09-03T00:06:49.825Z,16.70
2018-09-03T00:07:09.671Z,16.72
2018-09-03T00:07:30.040Z,16.72
2018-09-03T00:07:50.754Z,16.72
2018-09-03T00:08:10.604Z,16.72
2018-09-03T00:08:30.943Z,16.72
2018-09-03T00:08:51.596Z,16.72
2018-09-03T00:09:11.458Z,16.72
2018-09-03T00:09:31.803Z,16.72
2018-09-03T00:09:52.462Z,16.72
2018-09-03T00:10:12.463Z,16.72
2018-09-03T00:10:32.834Z,16.72
2018-09-03T00:10:53.493Z,16.71
2018-09-03T00:11:13.452Z,16.71
2018-09-03T00:11:34.141Z,16.71
2018-09-03T00:11:54.106Z,16.71
2018-09-03T00:12:14.470Z,16.72
2018-09-03T00:12:35.212Z,16.72
2018-09-03T00:12:55.066Z,16.72
2018-09-03T00:13:15.429Z,16.71
2018-09-03T00:13:36.080Z,16.71
2018-09-03T00:13:55.938Z,16.71
2018-09-03T00:14:16.327Z,16.70
2018-09-03T00:14:36.983Z,16.70
2018-09-03T00:14:56.879Z,16.70
2018-09-03T00:15:17.319Z,16.71
2018-09-03T00:15:37.957Z,16.73
2018-09-03T00:15:57.818Z,16.72
2018-09-03T00:16:18.380Z,16.72
2018-09-03T00:16:38.529Z,16.71
2018-09-03T00:16:58.399Z,16.72
2018-09-03T00:17:19.080Z,16.72
2018-09-03T00:17:39.278Z,16.72
2018-09-03T00:17:59.152Z,16.71
2018-09-03T00:18:19.858Z,16.72
2018-09-03T00:18:59.726Z,16.72
2018-09-03T00:19:20.498Z,16.72
2018-09-03T00:19:40.403Z,16.72
2018-09-03T00:20:00.761Z,16.72
2018-09-03T00:20:21.450Z,16.72
2018-09-03T00:20:41.296Z,16.71
2018-09-03T00:21:01.884Z,16.71
2018-09-03T00:21:22.079Z,16.72
2018-09-03T00:21:41.936Z,16.71
2018-09-03T00:22:02.585Z,16.72
2018-09-03T00:22:22.730Z,16.71
2018-09-03T00:22:42.776Z,16.71
2018-09-03T00:23:02.954Z,16.70
2018-09-03T00:23:23.106Z,16.71
2018-09-03T00:23:42.961Z,16.71
2018-09-03T00:24:03.658Z,16.70
2018-09-03T00:24:23.799Z,16.70
2018-09-03T00:24:43.644Z,16.70
2018-09-03T00:25:04.327Z,16.70
2018-09-03T00:25:24.642Z,16.71
2018-09-03T00:25:44.462Z,16.72
2018-09-03T00:26:05.155Z,16.70
2018-09-03T00:26:25.020Z,16.70
2018-09-03T00:26:45.362Z,16.71
2018-09-03T00:27:06.124Z,16.70
2018-09-03T00:27:25.989Z,16.70
2018-09-03T00:27:46.346Z,16.69
2018-09-03T00:28:07.082Z,16.69
2018-09-03T00:28:26.935Z,16.69
2018-09-03T00:28:47.298Z,16.69
2018-09-03T00:29:07.766Z,16.70
2018-09-03T00:29:28.124Z,16.69
2018-09-03T00:29:48.815Z,16.68
2018-09-03T00:30:09.059Z,16.69
2018-09-03T00:30:28.930Z,16.67
2018-09-03T00:30:49.579Z,16.67
2018-09-03T00:31:09.430Z,16.67
2018-09-03T00:31:29.788Z,16.67
2018-09-03T00:31:50.551Z,16.65
2018-09-03T00:32:10.416Z,16.65
2018-09-03T00:32:30.772Z,16.65
2018-09-03T00:32:51.447Z,16.64
2018-09-03T00:33:11.293Z,16.63
2018-09-03T00:33:31.641Z,16.63
2018-09-03T00:33:52.349Z,16.61
2018-09-03T00:34:12.436Z,16.61
2018-09-03T00:34:32.291Z,16.61
2018-09-03T00:34:52.949Z,16.61
2018-09-03T00:35:13.076Z,16.61
2018-09-03T00:35:32.930Z,16.59
2018-09-03T00:35:53.580Z,16.59
2018-09-03T00:36:13.491Z,16.58
2018-09-03T00:36:34.188Z,16.58
2018-09-03T00:36:54.485Z,16.57
2018-09-03T00:37:14.334Z,16.57
2018-09-03T00:37:35.093Z,16.58
2018-09-03T00:37:54.948Z,16.57
2018-09-03T00:38:15.311Z,16.58
2018-09-03T00:38:36.036Z,16.57
2018-09-03T00:38:55.896Z,16.57
2018-09-03T00:39:16.243Z,16.57
2018-09-03T00:39:36.878Z,16.57
2018-09-03T00:39:56.788Z,16.56
2018-09-03T00:40:17.449Z,16.57
2018-09-03T00:40:37.588Z,16.59
2018-09-03T00:40:57.446Z,16.59
2018-09-03T00:41:17.799Z,16.58
2018-09-03T00:41:38.454Z,16.58
2018-09-03T00:42:18.585Z,16.58
2018-09-03T00:42:38.719Z,16.58
2018-09-03T00:42:58.574Z,16.58
2018-09-03T00:43:19.256Z,16.59
2018-09-03T00:43:39.169Z,16.59
2018-09-03T00:43:59.523Z,16.59
2018-09-03T00:44:20.235Z,16.59
2018-09-03T00:44:40.109Z,16.59
2018-09-03T00:45:00.461Z,16.59
2018-09-03T00:45:21.149Z,16.58
2018-09-03T00:45:41.015Z,16.58
2018-09-03T00:46:01.379Z,16.58
2018-09-03T00:46:22.065Z,16.58
2018-09-03T00:46:41.926Z,16.58
2018-09-03T00:47:02.447Z,16.59
2018-09-03T00:47:22.608Z,16.59
2018-09-03T00:47:42.474Z,16.59
2018-09-03T00:48:03.159Z,16.58
2018-09-03T00:48:23.310Z,16.59
2018-09-03T00:48:43.169Z,16.60
2018-09-03T00:49:03.867Z,16.60
2018-09-03T00:49:24.157Z,16.60
2018-09-03T00:49:44.002Z,16.60
2018-09-03T00:50:04.752Z,16.61
2018-09-03T00:50:24.610Z,16.62
2018-09-03T00:50:44.963Z,16.62
2018-09-03T00:51:05.677Z,16.63
2018-09-03T00:51:25.598Z,16.64
2018-09-03T00:51:45.980Z,16.64
2018-09-03T00:52:06.684Z,16.65
2018-09-03T00:52:26.566Z,16.65
2018-09-03T00:52:46.930Z,16.67
2018-09-03T00:53:07.582Z,16.69
2018-09-03T00:53:27.484Z,16.68
2018-09-03T00:53:47.838Z,16.68
2018-09-03T00:54:08.283Z,16.71
2018-09-03T00:54:28.642Z,16.71
2018-09-03T00:54:49.336Z,16.71
2018-09-03T00:55:09.510Z,16.72
2018-09-03T00:55:29.352Z,16.72
2018-09-03T00:55:50.073Z,16.74
2018-09-03T00:56:09.993Z,16.74
2018-09-03T00:56:30.356Z,16.74
2018-09-03T00:56:51.075Z,16.74
2018-09-03T00:57:10.936Z,16.75
2018-09-03T00:57:31.299Z,16.75
2018-09-03T00:57:51.989Z,16.76
2018-09-03T00:58:11.852Z,16.76
2018-09-03T00:58:32.311Z,16.75
2018-09-03T00:58:52.955Z,16.76
2018-09-03T00:59:12.799Z,16.76
2018-09-03T00:59:33.307Z,16.76
2018-09-03T00:59:53.447Z,16.76
2018-09-03T01:00:13.303Z,16.78
2018-09-03T01:00:34.025Z,16.78
2018-09-03T01:00:54.101Z,16.78
2018-09-03T01:01:13.940Z,16.78
2018-09-03T01:01:34.639Z,16.80
2018-09-03T01:01:54.646Z,16.80
2018-09-03T01:02:14.663Z,16.81
2018-09-03T01:02:34.875Z,16.81
2018-09-03T01:02:54.773Z,16.81
2018-09-03T01:03:15.127Z,16.81
2018-09-03T01:03:35.856Z,16.81
2018-09-03T01:03:55.867Z,16.81
2018-09-03T01:04:15.742Z,16.84
2018-09-03T01:04:36.460Z,16.84
2018-09-03T01:04:56.314Z,16.84
2018-09-03T01:05:16.899Z,16.84
2018-09-03T01:05:37.062Z,16.85
2018-09-03T01:05:56.928Z,16.85
2018-09-03T01:06:17.284Z,16.85
2018-09-03T01:06:57.646Z,16.86
2018-09-03T01:07:18.087Z,16.86
2018-09-03T01:07:38.729Z,16.87
2018-09-03T01:07:58.587Z,16.88
2018-09-03T01:08:19.307Z,16.88
2018-09-03T01:08:39.382Z,16.88
2018-09-03T01:08:59.244Z,16.89
2018-09-03T01:09:19.984Z,16.89
2018-09-03T01:09:40.051Z,16.89
2018-09-03T01:09:59.910Z,16.89
2018-09-03T01:10:20.646Z,16.89
2018-09-03T01:10:40.497Z,16.89
2018-09-03T01:11:00.858Z,16.89
2018-09-03T01:11:21.525Z,16.89
2018-09-03T01:11:41.388Z,16.88
2018-09-03T01:12:02.050Z,16.89
2018-09-03T01:12:21.889Z,16.89
2018-09-03T01:12:42.251Z,16.89
2018-09-03T01:13:02.916Z,16.90
2018-09-03T01:13:23.064Z,16.90
2018-09-03T01:13:42.909Z,16.92
2018-09-03T01:14:03.618Z,16.92
2018-09-03T01:14:23.768Z,16.91
2018-09-03T01:14:43.673Z,16.92
2018-09-03T01:15:04.369Z,16.92
2018-09-03T01:15:24.282Z,16.92
2018-09-03T01:15:44.631Z,16.92
2018-09-03T01:16:05.318Z,16.92
2018-09-03T01:16:25.175Z,16.92
2018-09-03T01:16:45.583Z,16.92
2018-09-03T01:17:06.297Z,16.92
2018-09-03T01:17:26.322Z,16.92
2018-09-03T01:17:46.352Z,16.92
2018-09-03T01:18:06.574Z,16.92
2018-09-03T01:18:26.422Z,16.92
2018-09-03T01:18:46.785Z,16.92
2018-09-03T01:19:07.447Z,16.91
2018-09-03T01:19:27.301Z,16.92
2018-09-03T01:19:47.659Z,16.92
2018-09-03T01:20:08.317Z,16.92
2018-09-03T01:20:28.249Z,16.92
2018-09-03T01:20:48.915Z,16.92
2018-09-03T01:21:09.178Z,16.92
2018-09-03T01:21:29.026Z,16.92
2018-09-03T01:21:49.745Z,16.93
2018-09-03T01:22:09.594Z,16.92
2018-09-03T01:22:29.937Z,16.92
2018-09-03T01:22:50.649Z,16.92
2018-09-03T01:23:10.504Z,16.92
2018-09-03T01:23:30.940Z,16.92
2018-09-03T01:23:51.599Z,16.93
2018-09-03T01:24:11.459Z,16.93
2018-09-03T01:24:31.819Z,16.93
2018-09-03T01:24:52.509Z,16.93
2018-09-03T01:25:12.357Z,16.93
2018-09-03T01:25:32.729Z,16.93
2018-09-03T01:25:53.374Z,16.93
2018-09-03T01:26:13.234Z,16.93
2018-09-03T01:26:33.874Z,16.94
2018-09-03T01:26:54.013Z,16.94
2018-09-03T01:27:13.880Z,16.94
2018-09-03T01:27:34.591Z,16.94
2018-09-03T01:27:54.490Z,16.94
2018-09-03T01:28:14.832Z,16.94
2018-09-03T01:28:35.541Z,16.94
2018-09-03T01:28:55.398Z,16.95
2018-09-03T01:29:15.755Z,16.95
2018-09-03T01:29:36.549Z,16.95
2018-09-03T01:29:56.284Z,16.93
2018-09-03T01:30:16.946Z,16.93
2018-09-03T01:30:37.097Z,16.94
2018-09-03T01:30:56.942Z,16.93
2018-09-03T01:31:17.299Z,16.93
2018-09-03T01:31:37.931Z,16.93
2018-09-03T01:31:57.788Z,16.93
2018-09-03T01:32:18.355Z,16.93
2018-09-03T01:32:38.493Z,16.92
2018-09-03T01:32:58.350Z,16.92
2018-09-03T01:33:19.054Z,16.91
2018-09-03T01:33:39.202Z,16.90
2018-09-03T01:33:59.138Z,16.89
2018-09-03T01:34:20.117Z,16.89
2018-09-03T01:34:40.251Z,16.89
2018-09-03T01:35:00.523Z,16.88
2018-09-03T01:35:20.980Z,16.88
2018-09-03T01:35:41.206Z,16.88
2018-09-03T01:36:01.191Z,16.88
2018-09-03T01:36:21.977Z,16.88
2018-09-03T01:36:41.906Z,16.88
2018-09-03T01:37:02.901Z,16.86
2018-09-03T01:37:23.226Z,16.86
2018-09-03T01:37:43.650Z,16.86
2018-09-03T01:38:04.140Z,16.86
2018-09-03T01:38:24.607Z,16.85
2018-09-03T01:38:44.899Z,16.86
2018-09-03T01:39:05.408Z,16.84
2018-09-03T01:39:25.131Z,16.82
2018-09-03T01:40:05.628Z,16.82
2018-09-03T01:40:25.474Z,16.81
2018-09-03T01:40:46.163Z,16.79
2018-09-03T01:41:06.701Z,16.80
2018-09-03T01:41:26.181Z,16.79
2018-09-03T01:41:46.531Z,16.79
2018-09-03T01:42:07.194Z,16.77
2018-09-03T01:42:27.052Z,16.77
2018-09-03T01:42:47.483Z,16.77
2018-09-03T01:43:08.128Z,16.76
2018-09-03T01:43:27.994Z,16.75
2018-09-03T01:43:48.726Z,16.75
2018-09-03T01:44:08.878Z,16.75
2018-09-03T01:44:28.735Z,16.74
2018-09-03T01:44:49.453Z,16.73
2018-09-03T01:45:09.576Z,16.72
2018-09-03T01:45:29.426Z,16.73
2018-09-03T01:45:50.214Z,16.72
2018-09-03T01:46:10.292Z,16.72
2018-09-03T01:46:30.147Z,16.72
2018-09-03T01:46:50.845Z,16.72
2018-09-03T01:47:10.694Z,16.71
2018-09-03T01:47:31.050Z,16.71
2018-09-03T01:47:51.721Z,16.71
2018-09-03T01:48:11.582Z,16.71
2018-09-03T01:48:31.944Z,16.71
2018-09-03T01:48:52.590Z,16.70
2018-09-03T01:49:12.446Z,16.69
2018-09-03T01:49:32.813Z,16.70
2018-09-03T01:49:53.454Z,16.68
2018-09-03T01:50:13.469Z,16.69
2018-09-03T01:50:33.591Z,16.69
2018-09-03T01:51:13.469Z,16.69
2018-09-03T01:51:34.153Z,16.67
2018-09-03T01:51:54.270Z,16.68
2018-09-03T01:52:14.310Z,16.68
2018-09-03T01:52:34.512Z,16.68
2018-09-03T01:52:54.510Z,16.67
2018-09-03T01:53:14.865Z,16.68
2018-09-03T01:53:35.581Z,16.68
2018-09-03T01:53:55.433Z,16.67
2018-09-03T01:54:15.788Z,16.67
2018-09-03T01:54:36.467Z,16.67
2018-09-03T01:54:56.333Z,16.66
2018-09-03T01:55:16.720Z,16.66
2018-09-03T01:55:37.410Z,16.66
2018-09-03T01:55:57.313Z,16.65
2018-09-03T01:56:17.667Z,16.65
2018-09-03T01:56:38.317Z,16.63
2018-09-03T01:56:58.176Z,16.63
2018-09-03T01:57:18.847Z,16.63
2018-09-03T01:57:38.956Z,16.63
2018-09-03T01:57:58.799Z,16.62
2018-09-03T01:58:19.528Z,16.62
2018-09-03T01:58:59.596Z,16.62
2018-09-03T01:59:19.796Z,16.62
2018-09-03T01:59:39.649Z,16.61
2018-09-03T02:00:00.002Z,16.60
2018-09-03T02:00:20.705Z,16.62
2018-09-03T02:00:40.561Z,16.60
2018-09-03T02:01:00.912Z,16.61
2018-09-03T02:01:21.618Z,16.59
2018-09-03T02:01:41.484Z,16.60
2018-09-03T02:02:02.049Z,16.60
2018-09-03T02:02:22.233Z,16.59
2018-09-03T02:02:42.088Z,16.59
2018-09-03T02:03:02.746Z,16.59
2018-09-03T02:03:22.887Z,16.59
2018-09-03T02:03:42.791Z,16.58
2018-09-03T02:04:03.338Z,16.58
2018-09-03T02:04:23.491Z,16.58
2018-09-03T02:04:43.349Z,16.57
2018-09-03T02:05:04.063Z,16.57
2018-09-03T02:05:24.100Z,16.57
2018-09-03T02:05:44.084Z,16.57
2018-09-03T02:06:04.783Z,16.56
2018-09-03T02:06:24.743Z,16.56
2018-09-03T02:06:45.098Z,16.55
2018-09-03T02:07:05.770Z,16.55
2018-09-03T02:07:25.630Z,16.55
2018-09-03T02:07:45.995Z,16.55
2018-09-03T02:08:06.762Z,16.55
2018-09-03T02:08:26.638Z,16.53
2018-09-03T02:09:07.431Z,16.53
2018-09-03T02:09:27.279Z,16.53
2018-09-03T02:09:47.628Z,16.53
2018-09-03T02:10:08.282Z,16.52
2018-09-03T02:10:28.143Z,16.52
2018-09-03T02:10:48.853Z,16.52
2018-09-03T02:11:09.057Z,16.51
2018-09-03T02:11:28.913Z,16.51
2018-09-03T02:11:49.605Z,16.51
2018-09-03T02:12:09.522Z,16.51
2018-09-03T02:12:29.875Z,16.51
2018-09-03T02:12:50.584Z,16.51
2018-09-03T02:13:10.490Z,16.51
2018-09-03T02:13:30.858Z,16.51
2018-09-03T02:13:51.508Z,16.51
2018-09-03T02:14:11.369Z,16.51
2018-09-03T02:14:31.715Z,16.52
2018-09-03T02:14:52.372Z,16.52
2018-09-03T02:15:12.453Z,16.50
2018-09-03T02:15:32.323Z,16.50
2018-09-03T02:15:52.967Z,16.51
2018-09-03T02:16:12.861Z,16.51
2018-09-03T02:16:33.364Z,16.50
2018-09-03T02:16:53.519Z,16.51
2018-09-03T02:17:13.414Z,16.51
2018-09-03T02:17:34.089Z,16.50
2018-09-03T02:17:54.408Z,16.49
2018-09-03T02:18:14.276Z,16.50
2018-09-03T02:18:34.997Z,16.49
2018-09-03T02:18:54.868Z,16.49
2018-09-03T02:19:15.309Z,16.49
2018-09-03T02:19:36.011Z,16.49
2018-09-03T02:19:55.857Z,16.49
2018-09-03T02:20:16.537Z,16.49
2018-09-03T02:20:36.739Z,16.49
2018-09-03T02:20:56.612Z,16.49
2018-09-03T02:21:17.013Z,16.48
2018-09-03T02:21:37.649Z,16.49
2018-09-03T02:21:57.504Z,16.48
2018-09-03T02:22:18.106Z,16.48
2018-09-03T02:22:38.267Z,16.48
2018-09-03T02:22:58.124Z,16.47
2018-09-03T02:23:18.849Z,16.47
2018-09-03T02:23:38.996Z,16.48
2018-09-03T02:24:19.231Z,16.47
2018-09-03T02:24:39.293Z,16.47
2018-09-03T02:24:59.139Z,16.47
2018-09-03T02:25:19.855Z,16.47
2018-09-03T02:25:39.709Z,16.47
2018-09-03T02:26:00.081Z,16.46
2018-09-03T02:26:20.805Z,16.46
2018-09-03T02:26:40.663Z,16.46
2018-09-03T02:27:01.017Z,16.47
2018-09-03T02:27:21.675Z,16.47
2018-09-03T02:27:41.521Z,16.47
2018-09-03T02:28:01.886Z,16.47
2018-09-03T02:28:42.254Z,16.47
2018-09-03T02:29:02.925Z,16.46
2018-09-03T02:29:23.059Z,16.47
2018-09-03T02:29:42.922Z,16.47
2018-09-03T02:30:03.753Z,16.47
2018-09-03T02:30:23.895Z,16.48
2018-09-03T02:30:43.755Z,16.48
2018-09-03T02:31:04.459Z,16.48
2018-09-03T02:31:24.552Z,16.48
2018-09-03T02:31:44.407Z,16.48
2018-09-03T02:32:05.111Z,16.48
2018-09-03T02:32:24.953Z,16.50
2018-09-03T02:32:45.423Z,16.50
2018-09-03T02:33:06.152Z,16.50
2018-09-03T02:33:26.008Z,16.51
2018-09-03T02:33:46.356Z,16.51
2018-09-03T02:34:07.059Z,16.52
2018-09-03T02:34:26.958Z,16.52
2018-09-03T02:34:47.312Z,16.52
2018-09-03T02:35:07.963Z,16.52
2018-09-03T02:35:27.928Z,16.53
2018-09-03T02:35:48.540Z,16.54
2018-09-03T02:36:08.404Z,16.54
2018-09-03T02:36:28.862Z,16.54
2018-09-03T02:36:49.596Z,16.54
2018-09-03T02:37:09.728Z,16.54
2018-09-03T02:37:29.583Z,16.55
2018-09-03T02:37:50.325Z,16.55
2018-09-03T02:38:10.185Z,16.56
2018-09-03T02:38:30.546Z,16.56
2018-09-03T02:38:51.276Z,16.56
2018-09-03T02:39:11.176Z,16.56
2018-09-03T02:39:31.521Z,16.56
2018-09-03T02:39:52.238Z,16.58
2018-09-03T02:40:12.080Z,16.58
2018-09-03T02:40:32.437Z,16.58
2018-09-03T02:40:53.079Z,16.58
2018-09-03T02:41:12.950Z,16.59
2018-09-03T02:41:33.532Z,16.60
2018-09-03T02:41:53.915Z,16.60
2018-09-03T02:42:13.777Z,16.60
2018-09-03T02:42:34.471Z,16.60
2018-09-03T02:42:54.335Z,16.61
2018-09-03T02:43:14.695Z,16.62
2018-09-03T02:43:35.392Z,16.62
2018-09-03T02:43:55.485Z,16.63
2018-09-03T02:44:15.339Z,16.62
2018-09-03T02:44:36.034Z,16.62
2018-09-03T02:44:55.887Z,16.64
2018-09-03T02:45:16.559Z,16.65
2018-09-03T02:45:36.706Z,16.65
2018-09-03T02:45:56.798Z,16.65
2018-09-03T02:46:16.679Z,16.66
2018-09-03T02:46:37.336Z,16.68
2018-09-03T02:46:57.196Z,16.68
2018-09-03T02:47:17.553Z,16.70
2018-09-03T02:47:38.206Z,16.70
2018-09-03T02:47:58.062Z,16.71
2018-09-03T02:48:18.751Z,16.72
2018-09-03T02:48:38.889Z,16.71
2018-09-03T02:48:58.762Z,16.71
2018-09-03T02:49:19.462Z,16.73
2018-09-03T02:49:39.413Z,16.74
2018-09-03T02:49:59.769Z,16.73
2018-09-03T02:50:20.492Z,16.73
2018-09-03T02:50:40.366Z,16.74
2018-09-03T02:51:00.775Z,16.74
2018-09-03T02:51:21.529Z,16.75
2018-09-03T02:51:41.594Z,16.74
2018-09-03T02:52:01.467Z,16.75
2018-09-03T02:52:22.144Z,16.75
2018-09-03T02:52:42.109Z,16.76
2018-09-03T02:53:02.770Z,16.76
2018-09-03T02:53:22.917Z,16.77
2018-09-03T02:53:42.777Z,16.78
2018-09-03T02:54:03.493Z,16.77
2018-09-03T02:54:23.645Z,16.77
2018-09-03T02:54:43.505Z,16.77
2018-09-03T02:55:04.272Z,16.78
2018-09-03T02:55:24.374Z,16.79
2018-09-03T02:55:44.243Z,16.79
2018-09-03T02:56:04.898Z,16.80
2018-09-03T02:56:24.747Z,16.79
2018-09-03T02:56:45.090Z,16.81
2018-09-03T02:57:05.855Z,16.81
2018-09-03T02:57:25.711Z,16.80
2018-09-03T02:57:46.068Z,16.81
2018-09-03T02:58:06.817Z,16.81
2018-09-03T02:58:26.920Z,16.83
2018-09-03T02:58:46.846Z,16.82
2018-09-03T02:59:07.511Z,16.82
2018-09-03T02:59:27.365Z,16.82
2018-09-03T02:59:47.815Z,16.83
2018-09-03T03:00:08.464Z,16.83
2018-09-03T03:00:28.320Z,16.84
2018-09-03T03:00:49.029Z,16.83
2018-09-03T03:01:09.216Z,16.83
2018-09-03T03:01:29.192Z,16.85
2018-09-03T03:01:49.937Z,16.83
2018-09-03T03:02:09.793Z,16.84
2018-09-03T03:02:30.143Z,16.84
2018-09-03T03:02:50.862Z,16.83
2018-09-03T03:03:10.731Z,16.85
2018-09-03T03:03:31.107Z,16.83
2018-09-03T03:03:52.008Z,16.83
2018-09-03T03:04:11.904Z,16.83
2018-09-03T03:04:32.258Z,16.80
2018-09-03T03:04:52.906Z,16.79
2018-09-03T03:05:12.909Z,16.79
2018-09-03T03:05:32.770Z,16.78
2018-09-03T03:05:53.431Z,16.76
2018-09-03T03:06:13.296Z,16.73
2018-09-03T03:06:33.935Z,16.73
2018-09-03T03:06:54.025Z,16.71
2018-09-03T03:07:13.875Z,16.70
2018-09-03T03:07:34.630Z,16.66
2018-09-03T03:07:54.541Z,16.66
2018-09-03T03:08:15.018Z,16.64
2018-09-03T03:08:35.721Z,16.64
2018-09-03T03:08:55.583Z,16.62
2018-09-03T03:09:15.944Z,16.62
2018-09-03T03:09:36.621Z,16.59
2018-09-03T03:09:56.700Z,16.58
2018-09-03T03:10:16.869Z,16.58
2018-09-03T03:10:37.044Z,16.56
2018-09-03T03:10:57.054Z,16.55
2018-09-03T03:11:16.906Z,16.54
2018-09-03T03:11:37.614Z,16.54
2018-09-03T03:11:57.424Z,16.51
2018-09-03T03:12:17.781Z,16.50
2018-09-03T03:12:38.432Z,16.49
2018-09-03T03:12:58.306Z,16.48
2018-09-03T03:13:19.076Z,16.45
2018-09-03T03:13:39.085Z,16.44
2018-09-03T03:13:58.930Z,16.43
2018-09-03T03:14:19.661Z,16.43
2018-09-03T03:14:39.518Z,16.42
2018-09-03T03:14:59.883Z,16.41
2018-09-03T03:15:20.618Z,16.39
2018-09-03T03:15:40.474Z,16.38
2018-09-03T03:16:00.828Z,16.37
2018-09-03T03:16:21.518Z,16.37
2018-09-03T03:16:41.383Z,16.35
2018-09-03T03:17:02.026Z,16.34
2018-09-03T03:17:22.148Z,16.32
2018-09-03T03:17:42.002Z,16.31
2018-09-03T03:18:02.607Z,16.33
2018-09-03T03:18:22.765Z,16.33
2018-09-03T03:18:42.660Z,16.30
2018-09-03T03:19:03.339Z,16.29
2018-09-03T03:19:23.492Z,16.29
2018-09-03T03:19:43.343Z,16.28
2018-09-03T03:20:04.090Z,16.27
2018-09-03T03:20:24.152Z,16.25
2018-09-03T03:20:44.004Z,16.25
2018-09-03T03:21:04.690Z,16.25
2018-09-03T03:21:24.604Z,16.25
2018-09-03T03:21:44.967Z,16.24
2018-09-03T03:22:05.703Z,16.22
2018-09-03T03:22:25.544Z,16.22
2018-09-03T03:22:45.909Z,16.21
2018-09-03T03:23:06.660Z,16.21
2018-09-03T03:23:26.604Z,16.18
2018-09-03T03:23:46.955Z,16.19
2018-09-03T03:24:07.600Z,16.18
2018-09-03T03:24:27.503Z,16.17
2018-09-03T03:24:47.862Z,16.18
2018-09-03T03:25:08.508Z,16.18
2018-09-03T03:25:28.408Z,16.16
2018-09-03T03:25:49.094Z,16.16
2018-09-03T03:26:08.957Z,16.15
2018-09-03T03:26:29.405Z,16.14
2018-09-03T03:26:50.095Z,16.14
2018-09-03T03:27:09.947Z,16.13
2018-09-03T03:27:30.304Z,16.13
2018-09-03T03:27:51.022Z,16.12
2018-09-03T03:28:10.880Z,16.12
2018-09-03T03:28:31.235Z,16.11
2018-09-03T03:28:51.875Z,16.11
2018-09-03T03:29:11.739Z,16.11
2018-09-03T03:29:32.156Z,16.10
2018-09-03T03:29:52.792Z,16.10
2018-09-03T03:30:12.661Z,16.10
2018-09-03T03:30:33.116Z,16.10
2018-09-03T03:30:54.064Z,16.09
2018-09-03T03:31:13.924Z,16.08
2018-09-03T03:31:34.660Z,16.10
2018-09-03T03:31:54.644Z,16.08
2018-09-03T03:32:15.004Z,16.07
2018-09-03T03:32:35.711Z,16.08
2018-09-03T03:32:55.580Z,16.07
2018-09-03T03:33:15.937Z,16.06
2018-09-03T03:33:36.589Z,16.07
2018-09-03T03:33:56.494Z,16.08
2018-09-03T03:34:16.856Z,16.06
2018-09-03T03:34:37.506Z,16.05
2018-09-03T03:34:57.352Z,16.06
2018-09-03T03:35:17.711Z,16.05
2018-09-03T03:35:38.361Z,16.05
2018-09-03T03:35:58.224Z,16.05
2018-09-03T03:36:18.921Z,16.05
2018-09-03T03:36:39.259Z,16.05
2018-09-03T03:36:59.120Z,16.05
2018-09-03T03:37:19.851Z,16.05
2018-09-03T03:37:39.700Z,16.05
2018-09-03T03:38:00.059Z,16.05
2018-09-03T03:38:20.774Z,16.05
2018-09-03T03:38:40.637Z,16.04
2018-09-03T03:39:01.000Z,16.05
2018-09-03T03:39:21.726Z,16.05
2018-09-03T03:39:41.797Z,16.04
2018-09-03T03:40:01.778Z,16.03
2018-09-03T03:40:22.485Z,16.03
2018-09-03T03:40:42.425Z,16.02
2018-09-03T03:41:03.145Z,16.04
2018-09-03T03:41:23.290Z,16.04
2018-09-03T03:41:43.405Z,16.04
2018-09-03T03:42:03.620Z,16.03
2018-09-03T03:42:23.775Z,16.03
2018-09-03T03:42:43.764Z,16.03
2018-09-03T03:43:04.472Z,16.02
2018-09-03T03:43:24.613Z,16.02
2018-09-03T03:43:44.520Z,16.02
2018-09-03T03:44:05.230Z,16.02
2018-09-03T03:44:25.107Z,16.01
2018-09-03T03:44:45.434Z,16.02
2018-09-03T03:45:06.150Z,16.02
2018-09-03T03:45:26.218Z,16.02
2018-09-03T03:45:46.065Z,16.01
2018-09-03T03:46:06.827Z,16.01
2018-09-03T03:46:26.963Z,16.01
2018-09-03T03:46:46.975Z,16.02
2018-09-03T03:47:07.176Z,16.01
2018-09-03T03:47:27.029Z,16.02
2018-09-03T03:47:47.376Z,16.01
2018-09-03T03:48:08.019Z,16.01
2018-09-03T03:48:27.888Z,16.01
2018-09-03T03:48:48.547Z,16.02
2018-09-03T03:49:08.379Z,16.00
2018-09-03T03:49:28.725Z,16.01
2018-09-03T03:49:49.461Z,16.01
2018-09-03T03:50:09.318Z,16.01
2018-09-03T03:50:50.054Z,16.00
2018-09-03T03:51:09.913Z,16.00
2018-09-03T03:51:30.270Z,16.01
2018-09-03T03:51:50.963Z,16.00
2018-09-03T03:52:10.826Z,16.00
2018-09-03T03:52:31.188Z,16.00
2018-09-03T03:52:51.849Z,16.00
2018-09-03T03:53:11.749Z,16.00
2018-09-03T03:53:32.116Z,15.99
2018-09-03T03:53:52.759Z,16.00
2018-09-03T03:54:12.624Z,16.00
2018-09-03T03:54:33.075Z,16.00
2018-09-03T03:54:53.742Z,16.00
2018-09-03T03:55:13.962Z,15.99
2018-09-03T03:55:34.062Z,16.00
2018-09-03T03:55:54.317Z,16.00
2018-09-03T03:56:14.176Z,16.00
2018-09-03T03:56:34.879Z,16.00
2018-09-03T03:56:54.736Z,16.01
2018-09-03T03:57:15.092Z,15.99
2018-09-03T03:57:35.910Z,16.00
2018-09-03T03:57:55.791Z,15.99
2018-09-03T03:58:16.159Z,16.00
2018-09-03T03:58:36.875Z,16.00
2018-09-03T03:58:56.743Z,16.00
2018-09-03T03:59:17.105Z,16.00
2018-09-03T03:59:37.769Z,16.00
2018-09-03T03:59:57.613Z,15.99
2018-09-03T04:00:18.237Z,16.01
2018-09-03T04:00:38.399Z,16.00
2018-09-03T04:00:58.256Z,16.00
2018-09-03T04:01:18.893Z,15.99
2018-09-03T04:01:39.048Z,16.00
2018-09-03T04:01:58.946Z,16.00
2018-09-03T04:02:19.637Z,15.99
2018-09-03T04:02:39.652Z,16.00
2018-09-03T04:02:59.516Z,15.99
2018-09-03T04:03:20.253Z,15.99
2018-09-03T04:03:40.112Z,16.00
2018-09-03T04:04:00.521Z,15.99
2018-09-03T04:04:21.230Z,16.00
2018-09-03T04:04:41.084Z,15.99
2018-09-03T04:05:01.567Z,16.00
2018-09-03T04:05:22.244Z,16.00
2018-09-03T04:05:42.356Z,16.00
2018-09-03T04:06:02.464Z,15.99
2018-09-03T04:06:22.627Z,16.00
2018-09-03T04:06:42.480Z,16.00
2018-09-03T04:07:03.167Z,16.00
2018-09-03T04:07:23.335Z,16.00
2018-09-03T04:07:43.181Z,16.00
2018-09-03T04:08:03.912Z,16.00
2018-09-03T04:08:24.016Z,16.00
2018-09-03T04:08:43.891Z,16.01
2018-09-03T04:09:04.560Z,16.01
2018-09-03T04:09:24.426Z,16.01
2018-09-03T04:09:44.785Z,16.02
2018-09-03T04:10:05.443Z,16.01
2018-09-03T04:10:25.296Z,16.03
2018-09-03T04:10:45.696Z,16.01
2018-09-03T04:11:06.381Z,16.01
2018-09-03T04:11:26.228Z,16.01
2018-09-03T04:11:46.624Z,16.02
2018-09-03T04:12:07.132Z,16.01
2018-09-03T04:12:27.006Z,16.01
2018-09-03T04:12:47.371Z,16.02
2018-09-03T04:13:07.818Z,16.01
2018-09-03T04:13:28.324Z,16.02
2018-09-03T04:13:48.359Z,16.02
2018-09-03T04:14:08.207Z,16.02
2018-09-03T04:14:28.576Z,16.01
2018-09-03T04:14:49.249Z,16.01
2018-09-03T04:15:09.542Z,16.02
2018-09-03T04:15:29.410Z,16.02
2018-09-03T04:15:50.103Z,16.04
2018-09-03T04:16:09.993Z,16.02
2018-09-03T04:16:30.318Z,16.02
2018-09-03T04:16:51.087Z,16.03
2018-09-03T04:17:10.945Z,16.03
2018-09-03T04:17:31.324Z,16.04
2018-09-03T04:17:51.994Z,16.04
2018-09-03T04:18:11.885Z,16.04
2018-09-03T04:18:32.235Z,16.04
2018-09-03T04:18:52.871Z,16.04
2018-09-03T04:19:12.727Z,16.04
2018-09-03T04:19:33.186Z,16.05
2018-09-03T04:19:53.931Z,16.05
2018-09-03T04:20:13.953Z,16.04
2018-09-03T04:20:34.163Z,16.05
2018-09-03T04:20:54.131Z,16.05
2018-09-03T04:21:14.499Z,16.05
2018-09-03T04:21:35.219Z,16.06
2018-09-03T04:21:55.078Z,16.06
2018-09-03T04:22:15.428Z,16.06
2018-09-03T04:22:36.102Z,16.06
2018-09-03T04:22:56.046Z,16.07
2018-09-03T04:23:16.450Z,16.06
2018-09-03T04:23:37.001Z,16.07
2018-09-03T04:23:56.903Z,16.08
2018-09-03T04:24:17.266Z,16.08